Time;durP1;ratioP1;P1;durP2;ratioP2;P2;SDS_P1;SDS_P2;PMS_P1;PMS_P2;Temp;Humidity;BMP_temperature;BMP_pressure;BME280_temperature;BME280_humidity;BME280_pressure;Samples;Min_cycle;Max_cycle;Signal;HPM_P1;HPM_P2
2022/04/16 00:01:27;;;;;;;;;;;11.00;99.90;;;;;;8380434;28;19931;-70
2022/04/16 00:05:29;;;;;;;;;;;10.90;99.90;;;;;;8386445;28;19971;-70
2022/04/16 00:09:31;;;;;;;;;;;10.90;99.90;;;;;;8389161;28;19929;-70
2022/04/16 00:13:32;;;;;;;;;;;10.90;99.90;;;;;;8388961;28;19924;-70
2022/04/16 00:17:36;;;;;;;;;;;10.90;99.90;;;;;;8368094;28;19931;-70
2022/04/16 00:21:38;;;;;;;;;;;10.80;99.90;;;;;;8403510;28;19924;-70
2022/04/16 00:25:41;;;;;;;;;;;10.80;99.90;;;;;;8379006;28;19921;-71
2022/04/16 00:29:43;;;;;;;;;;;10.70;99.90;;;;;;8367494;28;19935;-70
2022/04/16 00:33:46;;;;;;;;;;;10.60;99.70;;;;;;8367043;28;19935;-70
2022/04/16 00:37:48;;;;;;;;;;;10.40;99.50;;;;;;8369459;28;19929;-70
2022/04/16 00:41:51;;;;;;;;;;;10.30;99.30;;;;;;8389069;28;19920;-70
2022/04/16 00:45:53;;;;;;;5.45;3.25;;;10.20;99.30;;;;;;8382991;28;19924;-70
2022/04/16 00:49:56;;;;;;;5.60;3.35;;;10.00;99.00;;;;;;8374425;28;20045;-70
2022/04/16 00:53:57;;;;;;;6.97;3.30;;;9.90;99.30;;;;;;8391893;28;19939;-70
2022/04/16 00:57:59;;;;;;;;;;;9.90;99.20;;;;;;8380226;28;19932;-70
2022/04/16 01:02:01;;;;;;;;;;;9.80;99.10;;;;;;8374769;28;19924;-70
2022/04/16 01:06:02;;;;;;;;;;;9.80;99.00;;;;;;8379380;28;20325;-70
2022/04/16 01:10:05;;;;;;;6.00;3.20;;;9.60;98.90;;;;;;8373612;28;19937;-70
2022/04/16 01:14:07;;;;;;;5.35;3.10;;;9.50;98.70;;;;;;8384054;28;20656;-70
2022/04/16 01:18:10;;;;;;;5.57;2.90;;;9.40;98.70;;;;;;8378920;28;20377;-70
2022/04/16 01:22:13;;;;;;;6.30;3.38;;;9.40;98.80;;;;;;8378927;28;20114;-70
2022/04/16 01:26:15;;;;;;;7.13;3.20;;;9.30;98.80;;;;;;8376356;28;20041;-70
2022/04/16 01:30:19;;;;;;;5.72;3.00;;;9.20;98.80;;;;;;8380252;28;20100;-70
2022/04/16 01:34:21;;;;;;;5.15;3.10;;;9.10;98.70;;;;;;8379678;28;20044;-70
2022/04/16 01:38:25;;;;;;;5.88;3.25;;;9.00;98.70;;;;;;8373740;28;20041;-70
2022/04/16 01:42:29;;;;;;;5.88;3.03;;;8.90;98.70;;;;;;8422075;28;20142;-70
2022/04/16 01:46:31;;;;;;;5.60;3.20;;;8.90;98.70;;;;;;8386433;28;20051;-70
2022/04/16 01:50:33;;;;;;;5.68;3.10;;;8.80;98.60;;;;;;8368445;28;20071;-70
2022/04/16 01:54:34;;;;;;;6.35;2.97;;;8.80;98.60;;;;;;8369782;28;20044;-70
2022/04/16 01:58:39;;;;;;;5.53;2.78;;;8.70;98.50;;;;;;8374381;28;20049;-70
2022/04/16 02:02:42;;;;;;;5.77;3.30;;;8.60;98.50;;;;;;8375500;28;20132;-70
2022/04/16 02:06:43;;;;;;;5.73;3.10;;;8.50;98.50;;;;;;8365484;28;20052;-70
2022/04/16 02:10:45;;;;;;;7.27;3.57;;;8.50;98.50;;;;;;8358094;28;20067;-71
2022/04/16 02:14:47;;;;;;;5.90;3.20;;;8.40;98.50;;;;;;8380272;28;20507;-70
2022/04/16 02:18:49;;;;;;;5.95;3.40;;;8.30;98.40;;;;;;8372320;28;19920;-70
2022/04/16 02:22:52;;;;;;;5.80;3.53;;;8.20;98.50;;;;;;8379840;28;20326;-70
2022/04/16 02:26:55;;;;;;;6.70;3.55;;;8.20;98.50;;;;;;8387739;28;19977;-70
2022/04/16 02:30:57;;;;;;;6.47;3.83;;;8.10;98.40;;;;;;8378675;28;20110;-70
2022/04/16 02:34:59;;;;;;;6.43;3.90;;;8.10;98.40;;;;;;8385705;28;20044;-70
2022/04/16 02:39:01;;;;;;;;;;;8.10;98.40;;;;;;8372737;28;20056;-70
2022/04/16 02:43:02;;;;;;;;;;;8.00;98.50;;;;;;8392751;28;19931;-70
2022/04/16 02:47:08;;;;;;;6.05;3.55;;;8.00;98.50;;;;;;8383321;28;19921;-70
2022/04/16 02:51:09;;;;;;;;;;;8.00;98.50;;;;;;8379907;28;20493;-70
2022/04/16 02:55:15;;;;;;;;;;;7.90;98.50;;;;;;8372126;28;19924;-70
2022/04/16 02:59:16;;;;;;;;;;;7.80;98.40;;;;;;8382435;28;20262;-70
2022/04/16 03:03:18;;;;;;;;;;;7.80;98.40;;;;;;8382284;28;19928;-70
2022/04/16 03:07:20;;;;;;;;;;;7.70;98.40;;;;;;8383329;28;19924;-70
2022/04/16 03:11:21;;;;;;;;;;;7.60;98.40;;;;;;8371453;28;20360;-70
2022/04/16 03:19:46;;;;;;;;;;;7.40;98.50;;;;;;8387870;28;20263;-70
2022/04/16 03:23:48;;;;;;;;;;;7.40;98.60;;;;;;8373792;28;19940;-70
2022/04/16 03:27:49;;;;;;;;;;;7.40;98.70;;;;;;8381524;28;19933;-70
2022/04/16 03:31:51;;;;;;;;;;;7.40;98.80;;;;;;8384343;28;19924;-70
2022/04/16 03:35:53;;;;;;;;;;;7.40;98.90;;;;;;8382123;28;20031;-70
2022/04/16 03:39:54;;;;;;;;;;;7.40;99.10;;;;;;8386262;28;19928;-70
2022/04/16 03:43:56;;;;;;;;;;;7.30;99.10;;;;;;8379091;28;19933;-70
2022/04/16 03:47:58;;;;;;;;;;;7.30;99.50;;;;;;8369440;28;19947;-70
2022/04/16 03:52:00;;;;;;;;;;;7.30;99.70;;;;;;8376520;28;20378;-70
2022/04/16 04:00:22;;;;;;;;;;;7.30;99.70;;;;;;8379719;28;19925;-70
2022/04/16 04:04:24;;;;;;;;;;;7.30;99.80;;;;;;8379593;28;19931;-70
2022/04/16 04:08:25;;;;;;;;;;;7.20;99.80;;;;;;8388755;28;19932;-71
2022/04/16 04:12:27;;;;;;;;;;;7.20;99.80;;;;;;8384932;28;19936;-71
2022/04/16 04:16:29;;;;;;;;;;;7.20;99.90;;;;;;8400327;28;19928;-70
2022/04/16 04:20:31;;;;;;;;;;;7.20;99.90;;;;;;8388014;28;19931;-70
2022/04/16 04:24:33;;;;;;;;;;;7.10;99.90;;;;;;8381733;28;19924;-70
2022/04/16 04:28:34;;;;;;;;;;;7.10;99.90;;;;;;8396942;28;20019;-70
2022/04/16 04:32:36;;;;;;;;;;;7.10;99.90;;;;;;8383708;28;19932;-70
2022/04/16 04:36:38;;;;;;;;;;;7.10;99.90;;;;;;8382600;28;20304;-70
2022/04/16 04:40:39;;;;;;;;;;;7.10;99.90;;;;;;8397438;28;19970;-70
2022/04/16 04:44:41;;;;;;;;;;;7.10;99.90;;;;;;8396884;28;19925;-70
2022/04/16 04:48:43;;;;;;;;;;;7.00;99.90;;;;;;8377758;28;19932;-70
2022/04/16 04:52:44;;;;;;;;;;;7.00;99.90;;;;;;8387120;28;19932;-70
2022/04/16 04:56:46;;;;;;;;;;;7.00;99.90;;;;;;8401958;28;19925;-70
2022/04/16 05:00:48;;;;;;;;;;;7.00;99.90;;;;;;8390880;28;19985;-70
2022/04/16 05:05:23;;;;;;;;;;;7.00;99.90;;;;;;8387019;28;19924;-70
2022/04/16 05:09:25;;;;;;;;;;;7.00;99.90;;;;;;8383893;28;19925;-70
2022/04/16 05:13:30;;;;;;;;;;;7.00;99.90;;;;;;8393408;28;19924;-70
2022/04/16 05:17:31;;;;;;;;;;;7.10;99.90;;;;;;8380174;28;19962;-69
2022/04/16 05:21:33;;;;;;;;;;;7.20;99.90;;;;;;8378968;28;19963;-70
2022/04/16 05:25:35;;;;;;;;;;;7.20;99.90;;;;;;8394072;28;19925;-70
2022/04/16 05:29:56;;;;;;;;;;;7.30;99.90;;;;;;8382482;28;19931;-70
2022/04/16 05:38:17;;;;;;;;;;;7.40;99.90;;;;;;8384751;28;20300;-69
2022/04/16 05:42:19;;;;;;;;;;;7.40;99.90;;;;;;8385283;28;19931;-69
2022/04/16 05:46:21;;;;;;;;;;;7.50;99.90;;;;;;8391827;28;20260;-69
2022/04/16 05:50:22;;;;;;;;;;;7.60;99.90;;;;;;8382538;28;19930;-69
2022/04/16 05:54:24;;;;;;;;;;;7.70;99.90;;;;;;8371811;28;20428;-69
2022/04/16 05:58:26;;;;;;;;;;;7.80;99.90;;;;;;8415646;28;20403;-69
2022/04/16 06:02:29;;;;;;;;;;;7.80;99.90;;;;;;8376584;28;20300;-69
2022/04/16 06:06:31;;;;;;;;;;;7.90;99.90;;;;;;8385877;28;19933;-69
2022/04/16 06:10:33;;;;;;;;;;;8.00;99.90;;;;;;8352135;28;19933;-69
2022/04/16 06:14:34;;;;;;;;;;;8.10;99.90;;;;;;8367546;28;19936;-69
2022/04/16 06:18:36;;;;;;;;;;;8.30;99.90;;;;;;8358091;28;19925;-69
2022/04/16 06:22:39;;;;;;;;;;;8.40;99.90;;;;;;8361059;28;19951;-72
2022/04/16 06:26:42;;;;;;;;;;;8.50;99.90;;;;;;8367597;28;20387;-72
2022/04/16 06:30:43;;;;;;;10.68;5.32;;;8.60;99.90;;;;;;8368741;28;19928;-72
2022/04/16 06:34:45;;;;;;;8.07;4.32;;;8.80;99.90;;;;;;8367885;28;20154;-73
2022/04/16 06:38:47;;;;;;;8.93;5.03;;;8.90;99.90;;;;;;8365439;28;20056;-72
2022/04/16 06:42:52;;;;;;;8.00;5.20;;;9.00;99.90;;;;;;8365360;28;20504;-73
2022/04/16 06:46:54;;;;;;;8.15;5.05;;;9.20;99.90;;;;;;8365676;28;20093;-73
2022/04/16 06:50:56;;;;;;;9.00;4.90;;;9.40;99.90;;;;;;8364349;28;20107;-72
2022/04/16 06:54:58;;;;;;;9.30;4.90;;;9.50;99.90;;;;;;8366055;28;20110;-73
2022/04/16 06:59:00;;;;;;;8.43;4.75;;;9.70;99.90;;;;;;8393553;28;20094;-73
2022/04/16 07:03:02;;;;;;;8.27;4.80;;;9.80;99.90;;;;;;8398957;27;20044;-73
2022/04/16 07:07:04;;;;;;;9.65;5.63;;;10.00;99.90;;;;;;8367724;28;20044;-73
2022/04/16 07:11:06;;;;;;;11.25;5.32;;;10.10;99.90;;;;;;8368240;28;20388;-72
2022/04/16 07:15:08;;;;;;;10.20;5.75;;;10.20;99.90;;;;;;8366136;28;20053;-72
2022/04/16 07:19:10;;;;;;;10.23;6.20;;;10.40;99.90;;;;;;8371000;28;20289;-73
2022/04/16 07:23:11;;;;;;;;;;;10.50;99.90;;;;;;8370837;28;20484;-72
2022/04/16 07:27:13;;;;;;;;;;;10.60;99.90;;;;;;8373942;28;19927;-72
2022/04/16 07:31:14;;;;;;;;;;;10.80;99.90;;;;;;8374796;28;19970;-72
2022/04/16 07:35:16;;;;;;;;;;;10.90;99.90;;;;;;8374243;28;19943;-72
2022/04/16 07:39:18;;;;;;;;;;;11.10;99.90;;;;;;8377222;28;19927;-73
2022/04/16 07:43:20;;;;;;;;;;;11.20;99.90;;;;;;8369784;28;19921;-73
2022/04/16 07:47:21;;;;;;;;;;;11.40;99.90;;;;;;8371009;28;20612;-73
2022/04/16 07:51:27;;;;;;;;;;;11.60;99.90;;;;;;8376795;28;19947;-73
2022/04/16 07:55:31;;;;;;;;;;;11.80;99.90;;;;;;8375805;28;19972;-72
2022/04/16 07:59:32;;;;;;;;;;;11.90;99.90;;;;;;8363717;28;19934;-72
2022/04/16 08:03:34;;;;;;;;;;;12.10;99.90;;;;;;8355106;28;19929;-72
2022/04/16 08:07:36;;;;;;;;;;;12.20;99.90;;;;;;8366517;28;19931;-72
2022/04/16 08:11:38;;;;;;;;;;;12.40;99.90;;;;;;8401728;27;19920;-73
2022/04/16 08:15:39;;;;;;;;;;;12.50;99.90;;;;;;8361225;28;19925;-73
2022/04/16 08:19:41;;;;;;;;;;;12.60;99.90;;;;;;8371287;28;19921;-73
2022/04/16 08:23:55;;;;;;;;;;;12.70;99.90;;;;;;8365388;28;19928;-72
2022/04/16 08:27:57;;;;;;;;;;;12.80;99.90;;;;;;8400540;27;19932;-73
2022/04/16 08:31:59;;;;;;;;;;;12.90;99.90;;;;;;8369363;28;20267;-72
2022/04/16 08:36:20;;;;;;;;;;;13.00;99.90;;;;;;8374349;28;20280;-72
2022/04/16 08:40:22;;;;;;;;;;;13.20;99.90;;;;;;8379861;28;19920;-73
2022/04/16 08:44:25;;;;;;;;;;;13.40;99.90;;;;;;8373047;28;19931;-73
2022/04/16 08:48:27;;;;;;;;;;;13.40;99.90;;;;;;8371157;28;20260;-73
2022/04/16 08:52:31;;;;;;;;;;;13.60;99.90;;;;;;8369771;28;19940;-72
2022/04/16 08:56:32;;;;;;;;;;;13.70;99.90;;;;;;8376872;28;19925;-73
2022/04/16 09:00:34;;;;;;;;;;;13.90;99.90;;;;;;8366216;28;19931;-72
2022/04/16 09:04:36;;;;;;;;;;;14.10;99.90;;;;;;8372532;28;19924;-72
2022/04/16 09:08:37;;;;;;;;;;;14.30;99.90;;;;;;8372662;28;19965;-72
2022/04/16 09:12:39;;;;;;;;;;;14.40;99.90;;;;;;8371458;28;20372;-72
2022/04/16 09:16:41;;;;;;;;;;;14.50;99.90;;;;;;8373845;28;19935;-72
2022/04/16 09:20:43;;;;;;;;;;;14.60;99.90;;;;;;8376832;28;19990;-73
2022/04/16 09:24:46;;;;;;;;;;;14.70;99.90;;;;;;8364694;28;19924;-73
2022/04/16 09:28:47;;;;;;;;;;;14.80;99.90;;;;;;8369354;28;19974;-73
2022/04/16 09:32:49;;;;;;;;;;;14.80;99.90;;;;;;8380106;28;19928;-73
2022/04/16 09:36:51;;;;;;;;;;;14.80;99.90;;;;;;8374969;28;19925;-73
2022/04/16 09:40:52;;;;;;;;;;;14.90;99.90;;;;;;8375061;28;19924;-73
2022/04/16 09:44:54;;;;;;;;;;;15.10;99.90;;;;;;8378292;28;19920;-73
2022/04/16 09:49:04;;;;;;;;;;;15.20;99.90;;;;;;8367577;28;19927;-73
2022/04/16 09:53:06;;;;;;;;;;;15.10;99.90;;;;;;8375770;28;19962;-73
2022/04/16 09:57:08;;;;;;;;;;;15.20;99.90;;;;;;8371691;28;19928;-72
2022/04/16 10:01:11;;;;;;;;;;;15.30;99.90;;;;;;8385643;28;19928;-73
2022/04/16 10:05:12;;;;;;;;;;;15.50;99.90;;;;;;8403597;27;19921;-73
2022/04/16 10:09:17;;;;;;;;;;;15.40;99.90;;;;;;8369973;28;19955;-73
2022/04/16 10:13:20;;;;;;;;;;;15.70;99.90;;;;;;8369408;28;19992;-73
2022/04/16 10:17:28;;;;;;;;;;;16.00;99.90;;;;;;8361287;28;19931;-73
2022/04/16 10:21:33;;;;;;;;;;;16.20;99.90;;;;;;8371310;28;19928;-73
2022/04/16 10:25:41;;;;;;;;;;;16.60;99.90;;;;;;8366182;28;19974;-73
2022/04/16 10:29:46;;;;;;;;;;;16.90;99.90;;;;;;8365825;28;19943;-73
2022/04/16 10:34:03;;;;;;;;;;;16.90;99.90;;;;;;8367837;28;19921;-73
2022/04/16 10:38:05;;;;;;;;;;;17.30;99.90;;;;;;8366837;28;19928;-73
2022/04/16 10:42:06;;;;;;;5.50;3.05;;;17.80;99.90;;;;;;8367597;28;19924;-73
2022/04/16 10:46:09;;;;;;;5.10;2.80;;;18.10;99.90;;;;;;8374324;28;20080;-73
2022/04/16 10:50:17;;;;;;;5.75;3.28;;;18.20;99.90;;;;;;8376221;28;20095;-73
2022/04/16 10:54:28;;;;;;;5.30;2.80;;;18.40;99.90;;;;;;8372749;28;20123;-73
2022/04/16 10:58:30;;;;;;;6.38;3.53;;;18.90;99.90;;;;;;8368541;28;20757;-73
2022/04/16 11:02:35;;;;;;;5.68;3.17;;;19.20;99.90;;;;;;8366859;28;20431;-73
2022/04/16 11:06:37;;;;;;;5.60;3.70;;;19.10;99.90;;;;;;8375460;28;20060;-73
2022/04/16 11:10:40;;;;;;;5.15;3.38;;;19.10;99.90;;;;;;8369628;28;20079;-73
2022/04/16 11:14:45;;;;;;;5.43;3.25;;;19.40;99.90;;;;;;8365374;28;20363;-74
2022/04/16 11:18:47;;;;;;;;;;;19.60;99.90;;;;;;8364431;28;20056;-73
2022/04/16 11:22:49;;;;;;;5.28;3.10;;;19.70;99.90;;;;;;8362390;28;20463;-74
2022/04/16 11:35:40;;;;;;;;;;;20.50;99.90;;;;;;8365221;28;20284;-74
2022/04/16 11:39:42;;;;;;;4.40;2.58;;;20.90;99.90;;;;;;8366073;28;20347;-74
2022/04/16 11:43:50;;;;;;;4.80;2.80;;;21.20;99.90;;;;;;8361055;28;20080;-75
2022/04/16 11:47:52;;;;;;;4.72;2.80;;;21.50;99.90;;;;;;8364614;28;20049;-74
2022/04/16 11:51:54;;;;;;;4.30;2.53;;;21.30;99.90;;;;;;8364644;28;20045;-75
2022/04/16 11:55:56;;;;;;;4.53;2.63;;;21.50;99.90;;;;;;8366431;28;20068;-74
2022/04/16 11:59:59;;;;;;;;;;;21.80;99.90;;;;;;8373987;28;20044;-74
2022/04/16 12:04:06;;;;;;;;;;;22.30;99.90;;;;;;8371498;28;19920;-74
2022/04/16 12:08:09;;;;;;;;;;;22.90;99.90;;;;;;8362813;28;19925;-75
2022/04/16 12:12:20;;;;;;;5.83;2.90;;;23.60;99.90;;;;;;8372747;28;20391;-74
2022/04/16 12:16:22;;;;;;;54.83;9.90;;;24.10;99.90;;;;;;8364364;28;19920;-74
2022/04/16 12:20:24;;;;;;;7.90;3.50;;;24.50;99.90;;;;;;8358030;28;20041;-75
2022/04/16 12:24:29;;;;;;;;;;;24.40;99.90;;;;;;8356430;28;20047;-75
2022/04/16 12:28:41;;;;;;;;;;;24.00;99.90;;;;;;8361794;28;24083;-74
2022/04/16 12:32:54;;;;;;;;;;;23.40;99.90;;;;;;8361561;28;19933;-74
2022/04/16 12:36:55;;;;;;;;;;;22.90;99.90;;;;;;8367292;28;20419;-74
2022/04/16 12:41:04;;;;;;;;;;;22.40;99.90;;;;;;8366420;28;19920;-74
2022/04/16 12:45:06;;;;;;;;;;;22.10;99.90;;;;;;8372811;28;19920;-74
2022/04/16 12:49:08;;;;;;;;;;;21.90;99.90;;;;;;8368710;28;20368;-74
2022/04/16 12:53:10;;;;;;;;;;;21.60;99.90;;;;;;8381964;28;19929;-73
2022/04/16 12:57:11;;;;;;;;;;;21.60;99.90;;;;;;8369055;28;20364;-73
2022/04/16 13:01:13;;;;;;;;;;;21.50;99.90;;;;;;8395820;28;19937;-74
2022/04/16 13:05:15;;;;;;;;;;;21.40;99.90;;;;;;8370920;28;19921;-73
2022/04/16 13:09:17;;;;;;;;;;;21.40;99.90;;;;;;8374492;28;19921;-74
2022/04/16 13:13:19;;;;;;;;;;;21.40;99.90;;;;;;8380333;28;19931;-73
2022/04/16 13:17:20;;;;;;;;;;;21.50;99.90;;;;;;8376812;28;19929;-73
2022/04/16 13:21:22;;;;;;;;;;;21.40;99.90;;;;;;8375278;28;19927;-73
2022/04/16 13:25:25;;;;;;;;;;;21.20;99.90;;;;;;8376183;28;19920;-73
2022/04/16 13:29:26;;;;;;;;;;;21.00;99.90;;;;;;8363847;28;20326;-73
2022/04/16 13:33:28;;;;;;;;;;;20.90;99.90;;;;;;8369928;28;19925;-73
2022/04/16 13:37:30;;;;;;;;;;;20.90;98.40;;;;;;8377649;28;19940;-73
2022/04/16 13:41:40;;;;;;;;;;;21.00;97.70;;;;;;8374365;28;19928;-73
2022/04/16 13:45:42;;;;;;;;;;;21.00;97.30;;;;;;8371930;28;19921;-73
2022/04/16 13:49:44;;;;;;;;;;;21.10;96.40;;;;;;8370751;28;19924;-74
2022/04/16 13:53:45;;;;;;;;;;;21.30;95.80;;;;;;8364849;28;19928;-73
2022/04/16 13:57:47;;;;;;;;;;;21.80;96.60;;;;;;8363809;28;19920;-73
2022/04/16 14:01:50;;;;;;;;;;;22.60;99.90;;;;;;8376650;28;19924;-73
2022/04/16 14:05:51;;;;;;;;;;;23.30;99.90;;;;;;8371659;28;19971;-74
2022/04/16 14:09:53;;;;;;;;;;;24.30;99.90;;;;;;8362246;28;20537;-73
2022/04/16 14:13:55;;;;;;;;;;;24.90;99.90;;;;;;8363113;28;20396;-73
2022/04/16 14:17:56;;;;;;;;;;;25.80;99.90;;;;;;8363211;28;19927;-73
2022/04/16 14:21:58;;;;;;;;;;;26.10;99.90;;;;;;8366046;28;25134;-73
2022/04/16 14:26:00;;;;;;;;;;;26.30;99.90;;;;;;8367184;28;19925;-74
2022/04/16 14:30:03;;;;;;;3.40;1.60;;;26.50;99.90;;;;;;8363292;28;25132;-74
2022/04/16 14:34:07;;;;;;;3.28;1.50;;;26.20;99.90;;;;;;8389883;27;20413;-74
2022/04/16 14:38:12;;;;;;;3.20;1.52;;;26.10;99.90;;;;;;8366059;28;20048;-73
2022/04/16 14:42:14;;;;;;;3.40;1.70;;;26.40;99.90;;;;;;8363337;28;20130;-74
2022/04/16 14:46:17;;;;;;;3.58;1.70;;;26.70;99.90;;;;;;8367069;28;20052;-74
2022/04/16 14:50:19;;;;;;;4.30;2.03;;;26.70;99.90;;;;;;8365811;28;20045;-74
2022/04/16 14:54:21;;;;;;;3.75;1.70;;;27.10;99.90;;;;;;8371215;28;20049;-73
2022/04/16 14:58:23;;;;;;;3.50;1.70;;;27.20;99.80;;;;;;8373200;28;20058;-74
2022/04/16 15:02:25;;;;;;;2.55;1.20;;;27.50;99.90;;;;;;8348062;28;20051;-74
2022/04/16 15:06:26;;;;;;;3.20;1.65;;;27.70;99.90;;;;;;8394372;28;20051;-74
2022/04/16 15:10:28;;;;;;;3.60;1.70;;;27.60;98.40;;;;;;8391232;27;20049;-74
2022/04/16 15:14:30;;;;;;;3.22;1.60;;;27.90;97.80;;;;;;8357014;28;20059;-74
2022/04/16 15:18:33;;;;;;;4.10;1.70;;;28.00;95.60;;;;;;8364092;28;20055;-74
2022/04/16 15:22:38;;;;;;;3.22;1.45;;;28.20;95.90;;;;;;8367188;28;20055;-74
2022/04/16 15:26:40;;;;;;;;;;;28.30;96.60;;;;;;8373081;28;20539;-74
2022/04/16 15:30:42;;;;;;;;;;;29.10;97.70;;;;;;8355707;28;19924;-74
2022/04/16 15:34:44;;;;;;;;;;;29.40;94.70;;;;;;8364465;28;20023;-74
2022/04/16 15:38:45;;;;;;;;;;;29.30;94.30;;;;;;8390551;28;19931;-74
2022/04/16 15:42:47;;;;;;;;;;;29.20;92.40;;;;;;8391073;28;19924;-74
2022/04/16 15:46:49;;;;;;;3.40;1.42;;;28.80;90.30;;;;;;8378130;28;25074;-74
2022/04/16 15:50:51;;;;;;;2.60;1.40;;;28.40;87.90;;;;;;8362272;28;20052;-73
2022/04/16 15:54:52;;;;;;;;;;;28.10;85.70;;;;;;8363712;28;20414;-74
2022/04/16 15:58:54;;;;;;;;;;;28.10;83.90;;;;;;8365195;28;20284;-73
2022/04/16 16:02:56;;;;;;;;;;;28.10;78.50;;;;;;8365977;28;24914;-74
2022/04/16 16:06:57;;;;;;;;;;;28.00;79.10;;;;;;8396842;28;19925;-74
2022/04/16 16:11:00;;;;;;;;;;;28.30;81.30;;;;;;8372868;28;19924;-73
2022/04/16 16:15:06;;;;;;;;;;;28.60;74.80;;;;;;8355665;28;19928;-74
2022/04/16 16:19:08;;;;;;;;;;;28.80;76.50;;;;;;8371179;28;25177;-74
2022/04/16 16:23:09;;;;;;;;;;;29.20;75.00;;;;;;8394213;27;19932;-74
2022/04/16 16:27:11;;;;;;;;;;;29.60;77.00;;;;;;8367064;28;19929;-74
2022/04/16 16:31:13;;;;;;;;;;;29.70;77.10;;;;;;8361929;28;20290;-74
2022/04/16 16:35:15;;;;;;;;;;;30.20;76.10;;;;;;8364201;28;25160;-74
2022/04/16 16:39:16;;;;;;;;;;;30.40;71.00;;;;;;8368123;28;19928;-74
2022/04/16 16:43:18;;;;;;;2.72;1.40;;;30.30;70.60;;;;;;8364643;28;19928;-74
2022/04/16 16:47:20;;;;;;;2.70;1.38;;;30.10;64.50;;;;;;8366878;28;20045;-74
2022/04/16 16:51:23;;;;;;;3.10;1.40;;;30.00;65.70;;;;;;8362738;28;20049;-74
2022/04/16 16:55:25;;;;;;;2.78;1.40;;;30.10;63.70;;;;;;8365907;28;20170;-74
2022/04/16 16:59:28;;;;;;;;;;;30.10;60.80;;;;;;8360881;28;20048;-74
2022/04/16 17:07:50;;;;;;;;;;;29.70;59.40;;;;;;8365195;28;19931;-74
2022/04/16 17:11:51;;;;;;;;;;;29.80;57.90;;;;;;8364967;28;19945;-74
2022/04/16 17:20:15;;;;;;;;;;;30.00;56.10;;;;;;8370144;28;19924;-74
2022/04/16 17:24:16;;;;;;;3.40;1.70;;;29.70;54.50;;;;;;8367371;28;19928;-74
2022/04/16 17:28:18;;;;;;;3.10;1.65;;;29.50;53.30;;;;;;8368589;28;20049;-74
2022/04/16 17:32:20;;;;;;;;;;;29.20;52.30;;;;;;8375225;28;20216;-74
2022/04/16 17:36:22;;;;;;;;;;;28.90;50.90;;;;;;8366758;28;19925;-74
2022/04/16 17:40:23;;;;;;;;;;;28.70;50.80;;;;;;8366941;28;19990;-74
2022/04/16 17:44:25;;;;;;;;;;;28.60;49.70;;;;;;8362948;28;20408;-74
2022/04/16 17:48:28;;;;;;;;;;;28.30;48.30;;;;;;8362049;28;19928;-73
2022/04/16 17:52:29;;;;;;;;;;;27.90;47.30;;;;;;8365900;28;20355;-73
2022/04/16 17:56:31;;;;;;;;;;;27.50;46.20;;;;;;8369586;28;19955;-74
2022/04/16 18:00:33;;;;;;;;;;;26.80;45.90;;;;;;8362844;28;19931;-73
2022/04/16 18:04:35;;;;;;;;;;;26.10;45.20;;;;;;8374942;28;19920;-73
2022/04/16 18:08:41;;;;;;;;;;;25.30;43.80;;;;;;8375982;28;20225;-74
2022/04/16 18:12:44;;;;;;;;;;;24.40;43.30;;;;;;8373834;28;19920;-73
2022/04/16 18:16:46;;;;;;;;;;;23.50;42.80;;;;;;8376737;28;19928;-73
2022/04/16 18:20:48;;;;;;;;;;;22.70;42.50;;;;;;8364250;28;19932;-73
2022/04/16 18:24:50;;;;;;;;;;;21.90;42.00;;;;;;8357827;28;19924;-73
2022/04/16 18:28:51;;;;;;;;;;;21.30;41.40;;;;;;8363659;28;19924;-73
2022/04/16 18:32:53;;;;;;;;;;;21.00;41.20;;;;;;8359795;28;19926;-73
2022/04/16 18:36:55;;;;;;;;;;;20.60;41.00;;;;;;8370570;28;20287;-73
2022/04/16 18:40:56;;;;;;;;;;;20.20;40.70;;;;;;8367338;28;20284;-73
2022/04/16 18:44:58;;;;;;;;;;;19.90;40.60;;;;;;8375283;28;19920;-73
2022/04/16 18:49:00;;;;;;;;;;;19.50;40.30;;;;;;8358125;28;19924;-73
2022/04/16 18:53:03;;;;;;;;;;;19.30;40.30;;;;;;8358926;28;20356;-73
2022/04/16 18:57:05;;;;;;;;;;;19.00;40.30;;;;;;8357193;28;19990;-73
2022/04/16 19:09:48;;;;;;;;;;;18.10;40.10;;;;;;8361874;28;19971;-73
2022/04/16 19:13:50;;;;;;;;;;;18.00;40.00;;;;;;8372555;28;20311;-73
2022/04/16 19:17:53;;;;;;;;;;;17.80;39.90;;;;;;8360316;28;20299;-73
2022/04/16 19:21:56;;;;;;;;;;;17.60;39.70;;;;;;8357528;28;19935;-73
2022/04/16 19:25:57;;;;;;;;;;;17.40;39.80;;;;;;8359699;28;19920;-73
2022/04/16 19:29:59;;;;;;;;;;;17.30;39.60;;;;;;8362223;28;19928;-73
2022/04/16 19:34:01;;;;;;;;;;;17.20;39.40;;;;;;8359626;28;19925;-73
2022/04/16 19:38:02;;;;;;;;;;;17.20;39.50;;;;;;8364779;28;19925;-72
2022/04/16 19:42:04;;;;;;;;;;;17.10;39.50;;;;;;8359908;28;20315;-73
2022/04/16 19:46:05;;;;;;;;;;;17.10;39.50;;;;;;8366584;28;20380;-73
2022/04/16 19:50:07;;;;;;;;;;;16.90;39.30;;;;;;8360539;28;19928;-73
2022/04/16 19:54:09;;;;;;;;;;;16.70;39.50;;;;;;8368110;28;19925;-73
2022/04/16 19:58:12;;;;;;;;;;;16.40;39.50;;;;;;8363952;28;19931;-73
2022/04/16 20:02:14;;;;;;;;;;;16.20;39.80;;;;;;8396456;27;19921;-73
2022/04/16 20:06:15;;;;;;;;;;;16.10;39.70;;;;;;8366830;28;19931;-73
2022/04/16 20:11:00;;;;;;;;;;;15.90;39.60;;;;;;8365629;28;20004;-73
2022/04/16 20:14:43;;;;;;;;;;;15.80;39.90;;;;;;8363792;28;20405;-73
2022/04/16 20:18:44;;;;;;;;;;;15.70;39.80;;;;;;8364289;28;20386;-73
2022/04/16 20:22:46;;;;;;;;;;;15.60;39.70;;;;;;8372003;28;20485;-73
2022/04/16 20:26:49;;;;;;;;;;;15.50;39.80;;;;;;8370811;28;19929;-72
2022/04/16 20:30:51;;;;;;;;;;;15.30;39.70;;;;;;8377122;28;20446;-73
2022/04/16 20:34:53;;;;;;;;;;;15.00;39.60;;;;;;8371345;28;19959;-73
2022/04/16 20:38:54;;;;;;;;;;;14.90;39.80;;;;;;8373967;28;19968;-72
2022/04/16 20:47:16;;;;;;;;;;;14.60;39.70;;;;;;8368829;28;19924;-73
2022/04/16 20:55:40;;;;;;;;;;;14.30;40.10;;;;;;8371518;28;20331;-73
2022/04/16 20:59:42;;;;;;;;;;;14.10;39.90;;;;;;8363952;28;19935;-73
2022/04/16 21:03:43;;;;;;;;;;;14.00;39.90;;;;;;8372713;28;20288;-73
2022/04/16 21:07:45;;;;;;;;;;;13.90;39.70;;;;;;8387531;28;20236;-72
2022/04/16 21:11:47;;;;;;;;;;;13.80;39.90;;;;;;8373809;28;19925;-73
2022/04/16 21:15:49;;;;;;;;;;;13.70;39.90;;;;;;8382640;28;19932;-73
2022/04/16 21:19:50;;;;;;;;;;;13.60;39.70;;;;;;8414739;27;20319;-73
2022/04/16 21:23:52;;;;;;;;;;;13.60;39.50;;;;;;8392064;28;19924;-73
2022/04/16 21:27:54;;;;;;;;;;;13.40;39.40;;;;;;8383197;28;19924;-73
2022/04/16 21:31:55;;;;;;;;;;;13.40;39.70;;;;;;8389524;28;19935;-73
2022/04/16 21:35:58;;;;;;;;;;;13.20;39.40;;;;;;8376980;28;19979;-73
2022/04/16 21:39:59;;;;;;;;;;;13.10;39.40;;;;;;8377536;28;19925;-73
2022/04/16 21:44:01;;;;;;;;;;;13.10;39.40;;;;;;8378964;28;19928;-73
2022/04/16 21:48:03;;;;;;;;;;;13.00;39.50;;;;;;8384098;28;19944;-73
2022/04/16 21:52:05;;;;;;;;;;;12.90;39.60;;;;;;8397723;28;19936;-73
2022/04/16 21:56:07;;;;;;;;;;;12.80;39.70;;;;;;8373792;28;19939;-73
2022/04/16 22:00:12;;;;;;;;;;;12.80;39.70;;;;;;8381629;28;20046;-73
2022/04/16 22:04:17;;;;;;;;;;;12.80;39.60;;;;;;8384002;28;19932;-73
2022/04/16 22:08:19;;;;;;;;;;;12.70;39.70;;;;;;8376498;28;19925;-73
2022/04/16 22:12:20;;;;;;;;;;;12.60;40.00;;;;;;8394051;28;19954;-73
2022/04/16 22:16:23;;;;;;;;;;;12.50;39.90;;;;;;8379270;28;19957;-73
2022/04/16 22:20:25;;;;;;;;;;;12.50;40.00;;;;;;8396448;28;19929;-73
2022/04/16 22:24:26;;;;;;;;;;;12.50;40.10;;;;;;8379700;28;19932;-73
2022/04/16 22:28:28;;;;;;;;;;;12.40;39.80;;;;;;8383903;28;19931;-73
2022/04/16 22:32:31;;;;;;;;;;;12.30;39.90;;;;;;8393897;28;20275;-73
2022/04/16 22:40:59;;;;;;;;;;;12.30;39.70;;;;;;8394445;28;19931;-72
2022/04/16 22:41:00;;;;;;;;;;;12.30;39.80;;;;;;8404163;28;19924;-73
2022/04/16 22:45:02;;;;;;;;;;;12.20;40.00;;;;;;8372411;28;19932;-73
2022/04/16 22:49:05;;;;;;;;;;;12.10;39.40;;;;;;8380833;28;19924;-73
2022/04/16 22:53:06;;;;;;;;;;;12.00;39.30;;;;;;8383918;28;19944;-73
2022/04/16 22:57:08;;;;;;;;;;;11.90;39.40;;;;;;8369982;28;19927;-73
2022/04/16 23:01:10;;;;;;;;;;;11.70;39.30;;;;;;8371468;28;19931;-73
2022/04/16 23:05:12;;;;;;;;;;;11.60;39.40;;;;;;8407354;27;20373;-73
2022/04/16 23:09:14;;;;;;;;;;;11.50;39.40;;;;;;8383788;28;20291;-73
2022/04/16 23:13:16;;;;;;;;;;;11.40;39.60;;;;;;8373304;28;20383;-72
2022/04/16 23:17:18;;;;;;;;;;;11.40;39.50;;;;;;8394440;28;19920;-73
2022/04/16 23:21:20;;;;;;;;;;;11.30;39.30;;;;;;8396065;28;19927;-72
2022/04/16 23:25:22;;;;;;;;;;;11.20;39.40;;;;;;8379895;28;19920;-73
2022/04/16 23:29:23;;;;;;;;;;;11.00;39.40;;;;;;8377018;28;19924;-73
2022/04/16 23:33:25;;;;;;;;;;;11.00;39.60;;;;;;8369804;28;19920;-73
2022/04/16 23:37:27;;;;;;;;;;;10.90;39.60;;;;;;8381903;28;19978;-73
2022/04/16 23:41:29;;;;;;;;;;;10.80;40.70;;;;;;8381991;28;20273;-72
2022/04/16 23:49:51;;;;;;;;;;;10.80;39.80;;;;;;8381413;28;19928;-73